Airfield :
LOGIN :

Register | Disclaimer

   EN    FR    IT 

 










Legend :    VFR   Marginal VFR   IFR   Intensive IFR   Very Intensive IFR
Visi :
Ceiling :
>= 8 km
>= 3000ft
5 to 8 km
1000 to 3000 ft
1500m to 5 km
500 to 1000 ft
800 to 1500m
200 to 500 ft
< 800m
< 200 ft
Symbols :   Thunderstorms  Fog  Heavy snow  Heavy precipitations  Wind > 20 kt
SIGMETs :     Misc.  Thunderstorms  Icing  Turbulence  Mountain Waves  Volcanic Ashes






- Airport Elevation : 53 ft
- IATA code : HAM


EDDH - Hamburg

CURRENT METAR :
  • 191750Z 29011KT 9999 -SHRA BKN019CB 05/04 Q1016 TEMPO 28015G25KT

EXPIRED METARs :
  • 191720Z 26011KT 9999 BKN019CB 06/03 Q1015 TEMPO 27015G25KT
  • 191650Z 27011KT 9999 FEW014 BKN020CB 06/03 Q1014 TEMPO 28015G25KT
  • 191620Z 28012KT 240V310 9999 -SHRA SCT014 SCT019CB 05/04 Q1014 RESHRA TEMPO 28015G25KT SHRA
  • 191550Z 27012KT 240V300 9999 SCT017CB SCT026 05/04 Q1013 RESHRA TEMPO 28015G25KT SHRA
  • 191520Z 29014KT 240V320 7000 SHRA BKN018CB 05/04 Q1013 BECMG NSW

TAF TAF EDDH
Valid from the 19 at 18:00 until the 21 at 00:00 UTC


191700Z 1918/2024 26012KT 9999 BKN035
BECMG 1920/1922 20009KT
BECMG 2003/2006 BKN012
TEMPO 2006/2012 4500 -RADZ BKN007
BECMG 2012/2014 23014KT BKN020
PROB30
TEMPO 2014/2021 23015G25KT
TEMPO 2021/2024 24015G30KT RA BKN012



MET'MAP, your aeronautical weather chart ! - Copyright ORBIFLY December 2007 - Disclaimer

ORBIFLY MET'MAP TEAM :

Programming & Development : Alexandra Zaïnal
Concept & original design : Baudouin d'Aumeries
Assistance for programming : Marc-Olivier Méhu
Technical & hardware support : Manuel Goepfert

Contact : metmap@orbifly.com




SOURCES & CREDITS :

   NOAA